sensor_id;sensor_type;location;lat;lon;timestamp;P1;durP1;ratioP1;P2;durP2;ratioP2
64543;SDS011;50936;51.660;5.616;2024-03-23T00:53:01;10.65;;;3.05;;
64543;SDS011;50936;51.660;5.616;2024-03-23T00:55:47;10.40;;;2.65;;
64543;SDS011;50936;51.660;5.616;2024-03-23T00:58:34;10.23;;;3.00;;
64543;SDS011;50936;51.660;5.616;2024-03-23T01:01:20;12.10;;;2.90;;
64543;SDS011;50936;51.660;5.616;2024-03-23T01:04:07;12.43;;;3.00;;
64543;SDS011;50936;51.660;5.616;2024-03-23T01:06:53;8.25;;;3.13;;
64543;SDS011;50936;51.660;5.616;2024-03-23T01:09:39;13.57;;;4.03;;
64543;SDS011;50936;51.660;5.616;2024-03-23T01:12:25;10.25;;;2.58;;
64543;SDS011;50936;51.660;5.616;2024-03-23T01:15:11;9.65;;;2.85;;
64543;SDS011;50936;51.660;5.616;2024-03-23T01:17:57;7.10;;;3.00;;
64543;SDS011;50936;51.660;5.616;2024-03-23T01:20:44;12.68;;;2.60;;
64543;SDS011;50936;51.660;5.616;2024-03-23T01:23:30;9.80;;;2.50;;
64543;SDS011;50936;51.660;5.616;2024-03-23T01:26:16;10.13;;;2.80;;
64543;SDS011;50936;51.660;5.616;2024-03-23T01:29:03;14.05;;;2.95;;
64543;SDS011;50936;51.660;5.616;2024-03-23T01:31:49;9.10;;;3.00;;
64543;SDS011;50936;51.660;5.616;2024-03-23T01:34:35;10.77;;;3.67;;
64543;SDS011;50936;51.660;5.616;2024-03-23T01:37:21;14.68;;;3.45;;
64543;SDS011;50936;51.660;5.616;2024-03-23T01:40:08;12.57;;;3.35;;
64543;SDS011;50936;51.660;5.616;2024-03-23T01:42:55;12.18;;;3.45;;
64543;SDS011;50936;51.660;5.616;2024-03-23T01:45:50;10.20;;;3.00;;
64543;SDS011;50936;51.660;5.616;2024-03-23T01:48:38;9.98;;;3.00;;
64543;SDS011;50936;51.660;5.616;2024-03-23T01:51:25;15.73;;;3.50;;
64543;SDS011;50936;51.660;5.616;2024-03-23T01:54:12;7.15;;;2.35;;
64543;SDS011;50936;51.660;5.616;2024-03-23T01:56:59;11.38;;;3.35;;
64543;SDS011;50936;51.660;5.616;2024-03-23T01:59:45;10.55;;;3.88;;
64543;SDS011;50936;51.660;5.616;2024-03-23T02:05:29;10.80;;;3.25;;
64543;SDS011;50936;51.660;5.616;2024-03-23T02:08:17;9.98;;;2.92;;
64543;SDS011;50936;51.660;5.616;2024-03-23T02:11:05;8.88;;;3.42;;
64543;SDS011;50936;51.660;5.616;2024-03-23T02:13:51;14.07;;;3.63;;
64543;SDS011;50936;51.660;5.616;2024-03-23T02:16:37;14.20;;;4.10;;
64543;SDS011;50936;51.660;5.616;2024-03-23T02:19:24;17.33;;;4.18;;
64543;SDS011;50936;51.660;5.616;2024-03-23T02:22:10;10.95;;;3.83;;
64543;SDS011;50936;51.660;5.616;2024-03-23T02:24:57;13.23;;;3.85;;
64543;SDS011;50936;51.660;5.616;2024-03-23T02:27:43;12.63;;;3.40;;
64543;SDS011;50936;51.660;5.616;2024-03-23T02:30:29;26.20;;;4.57;;
64543;SDS011;50936;51.660;5.616;2024-03-23T02:33:16;11.02;;;4.05;;
64543;SDS011;50936;51.660;5.616;2024-03-23T02:36:02;10.95;;;4.55;;
64543;SDS011;50936;51.660;5.616;2024-03-23T02:38:49;13.23;;;3.72;;
64543;SDS011;50936;51.660;5.616;2024-03-23T02:41:35;14.85;;;4.68;;
64543;SDS011;50936;51.660;5.616;2024-03-23T02:44:22;15.63;;;4.82;;
64543;SDS011;50936;51.660;5.616;2024-03-23T02:47:08;13.32;;;4.60;;
64543;SDS011;50936;51.660;5.616;2024-03-23T02:49:55;12.23;;;3.78;;
64543;SDS011;50936;51.660;5.616;2024-03-23T02:52:41;13.30;;;4.22;;
64543;SDS011;50936;51.660;5.616;2024-03-23T02:55:27;10.50;;;3.40;;
64543;SDS011;50936;51.660;5.616;2024-03-23T02:58:14;12.38;;;4.32;;
64543;SDS011;50936;51.660;5.616;2024-03-23T03:01:00;13.13;;;4.50;;
64543;SDS011;50936;51.660;5.616;2024-03-23T03:03:47;19.60;;;5.68;;
64543;SDS011;50936;51.660;5.616;2024-03-23T03:06:33;17.92;;;4.78;;
64543;SDS011;50936;51.660;5.616;2024-03-23T03:09:19;14.63;;;4.28;;
64543;SDS011;50936;51.660;5.616;2024-03-23T03:12:07;13.30;;;4.43;;
64543;SDS011;50936;51.660;5.616;2024-03-23T03:14:53;16.20;;;4.50;;
64543;SDS011;50936;51.660;5.616;2024-03-23T03:17:40;13.80;;;4.28;;
64543;SDS011;50936;51.660;5.616;2024-03-23T03:20:26;14.45;;;4.38;;
64543;SDS011;50936;51.660;5.616;2024-03-23T03:23:12;15.25;;;4.32;;
64543;SDS011;50936;51.660;5.616;2024-03-23T03:25:58;14.45;;;4.10;;
64543;SDS011;50936;51.660;5.616;2024-03-23T03:28:44;9.45;;;3.70;;
64543;SDS011;50936;51.660;5.616;2024-03-23T03:31:34;17.95;;;4.28;;
64543;SDS011;50936;51.660;5.616;2024-03-23T03:34:20;18.80;;;4.30;;
64543;SDS011;50936;51.660;5.616;2024-03-23T03:37:06;13.40;;;3.90;;
64543;SDS011;50936;51.660;5.616;2024-03-23T03:39:53;14.48;;;3.38;;
64543;SDS011;50936;51.660;5.616;2024-03-23T03:42:39;14.80;;;3.92;;
64543;SDS011;50936;51.660;5.616;2024-03-23T03:45:25;12.85;;;3.35;;
64543;SDS011;50936;51.660;5.616;2024-03-23T03:48:11;8.85;;;3.03;;
64543;SDS011;50936;51.660;5.616;2024-03-23T03:50:57;10.38;;;4.10;;
64543;SDS011;50936;51.660;5.616;2024-03-23T03:53:44;11.25;;;3.55;;
64543;SDS011;50936;51.660;5.616;2024-03-23T03:56:31;18.98;;;3.97;;
64543;SDS011;50936;51.660;5.616;2024-03-23T03:59:17;13.18;;;3.80;;
64543;SDS011;50936;51.660;5.616;2024-03-23T04:02:04;14.20;;;3.67;;
64543;SDS011;50936;51.660;5.616;2024-03-23T04:04:50;12.23;;;3.30;;
64543;SDS011;50936;51.660;5.616;2024-03-23T04:07:36;17.55;;;3.47;;
64543;SDS011;50936;51.660;5.616;2024-03-23T04:10:22;15.77;;;3.88;;
64543;SDS011;50936;51.660;5.616;2024-03-23T04:13:08;14.77;;;3.40;;
64543;SDS011;50936;51.660;5.616;2024-03-23T04:15:55;10.40;;;2.92;;
64543;SDS011;50936;51.660;5.616;2024-03-23T04:18:42;14.02;;;3.63;;
64543;SDS011;50936;51.660;5.616;2024-03-23T04:21:28;11.32;;;3.15;;
64543;SDS011;50936;51.660;5.616;2024-03-23T04:24:14;9.65;;;2.85;;
64543;SDS011;50936;51.660;5.616;2024-03-23T04:27:01;13.70;;;2.78;;
64543;SDS011;50936;51.660;5.616;2024-03-23T04:29:47;13.52;;;2.90;;
64543;SDS011;50936;51.660;5.616;2024-03-23T04:32:34;10.40;;;2.47;;
64543;SDS011;50936;51.660;5.616;2024-03-23T04:35:21;12.60;;;3.30;;
64543;SDS011;50936;51.660;5.616;2024-03-23T04:38:10;10.48;;;2.45;;
64543;SDS011;50936;51.660;5.616;2024-03-23T04:40:57;10.70;;;3.25;;
64543;SDS011;50936;51.660;5.616;2024-03-23T04:43:45;11.70;;;2.33;;
64543;SDS011;50936;51.660;5.616;2024-03-23T04:46:31;15.48;;;2.95;;
64543;SDS011;50936;51.660;5.616;2024-03-23T04:49:19;12.05;;;3.85;;
64543;SDS011;50936;51.660;5.616;2024-03-23T04:52:05;15.35;;;3.25;;
64543;SDS011;50936;51.660;5.616;2024-03-23T04:54:52;14.30;;;2.75;;
64543;SDS011;50936;51.660;5.616;2024-03-23T04:57:38;14.75;;;3.33;;
64543;SDS011;50936;51.660;5.616;2024-03-23T05:00:25;14.18;;;3.65;;
64543;SDS011;50936;51.660;5.616;2024-03-23T05:03:12;21.77;;;4.10;;
64543;SDS011;50936;51.660;5.616;2024-03-23T05:05:58;11.35;;;4.05;;
64543;SDS011;50936;51.660;5.616;2024-03-23T05:08:44;9.65;;;2.83;;
64543;SDS011;50936;51.660;5.616;2024-03-23T05:11:32;16.42;;;3.15;;
64543;SDS011;50936;51.660;5.616;2024-03-23T05:14:19;8.27;;;3.05;;
64543;SDS011;50936;51.660;5.616;2024-03-23T05:17:05;8.43;;;3.08;;
64543;SDS011;50936;51.660;5.616;2024-03-23T05:19:51;9.18;;;2.60;;
64543;SDS011;50936;51.660;5.616;2024-03-23T05:22:38;11.98;;;3.17;;
64543;SDS011;50936;51.660;5.616;2024-03-23T05:25:25;7.97;;;2.83;;
64543;SDS011;50936;51.660;5.616;2024-03-23T05:28:11;15.82;;;3.30;;
64543;SDS011;50936;51.660;5.616;2024-03-23T05:30:58;11.20;;;2.72;;
64543;SDS011;50936;51.660;5.616;2024-03-23T05:33:45;12.32;;;2.90;;
64543;SDS011;50936;51.660;5.616;2024-03-23T05:36:33;10.80;;;2.42;;
64543;SDS011;50936;51.660;5.616;2024-03-23T05:39:20;11.15;;;3.38;;
64543;SDS011;50936;51.660;5.616;2024-03-23T05:42:08;15.15;;;4.65;;
64543;SDS011;50936;51.660;5.616;2024-03-23T05:44:54;9.40;;;3.30;;
64543;SDS011;50936;51.660;5.616;2024-03-23T05:47:40;11.13;;;3.78;;
64543;SDS011;50936;51.660;5.616;2024-03-23T05:50:27;13.50;;;3.42;;
64543;SDS011;50936;51.660;5.616;2024-03-23T05:53:14;13.50;;;3.00;;
64543;SDS011;50936;51.660;5.616;2024-03-23T05:56:02;14.20;;;3.80;;
64543;SDS011;50936;51.660;5.616;2024-03-23T05:58:49;8.02;;;2.65;;
64543;SDS011;50936;51.660;5.616;2024-03-23T06:01:36;9.55;;;3.13;;
64543;SDS011;50936;51.660;5.616;2024-03-23T06:04:22;13.00;;;3.28;;
64543;SDS011;50936;51.660;5.616;2024-03-23T06:07:08;13.15;;;4.10;;
64543;SDS011;50936;51.660;5.616;2024-03-23T06:09:59;13.05;;;3.85;;
64543;SDS011;50936;51.660;5.616;2024-03-23T06:12:46;12.00;;;3.65;;
64543;SDS011;50936;51.660;5.616;2024-03-23T06:15:32;14.63;;;4.82;;
64543;SDS011;50936;51.660;5.616;2024-03-23T06:18:22;16.17;;;4.45;;
64543;SDS011;50936;51.660;5.616;2024-03-23T06:21:12;10.35;;;3.65;;
64543;SDS011;50936;51.660;5.616;2024-03-23T06:24:00;8.27;;;3.15;;
64543;SDS011;50936;51.660;5.616;2024-03-23T06:26:46;13.60;;;3.70;;
64543;SDS011;50936;51.660;5.616;2024-03-23T06:29:32;7.60;;;3.33;;
64543;SDS011;50936;51.660;5.616;2024-03-23T06:32:18;17.35;;;5.05;;
64543;SDS011;50936;51.660;5.616;2024-03-23T06:35:04;9.50;;;3.33;;
64543;SDS011;50936;51.660;5.616;2024-03-23T06:37:55;10.32;;;3.63;;
64543;SDS011;50936;51.660;5.616;2024-03-23T06:40:41;13.65;;;3.83;;
64543;SDS011;50936;51.660;5.616;2024-03-23T06:43:27;16.95;;;4.07;;
64543;SDS011;50936;51.660;5.616;2024-03-23T06:46:14;11.07;;;3.85;;
64543;SDS011;50936;51.660;5.616;2024-03-23T06:49:00;15.25;;;4.35;;
64543;SDS011;50936;51.660;5.616;2024-03-23T06:51:46;9.15;;;3.67;;
64543;SDS011;50936;51.660;5.616;2024-03-23T06:54:32;7.13;;;2.75;;
64543;SDS011;50936;51.660;5.616;2024-03-23T06:57:19;9.13;;;2.65;;
64543;SDS011;50936;51.660;5.616;2024-03-23T07:00:05;10.20;;;3.30;;
64543;SDS011;50936;51.660;5.616;2024-03-23T07:02:55;7.93;;;2.55;;
64543;SDS011;50936;51.660;5.616;2024-03-23T07:05:42;12.02;;;2.42;;
64543;SDS011;50936;51.660;5.616;2024-03-23T07:08:28;11.30;;;3.05;;
64543;SDS011;50936;51.660;5.616;2024-03-23T07:11:21;9.52;;;3.13;;
64543;SDS011;50936;51.660;5.616;2024-03-23T07:14:08;13.10;;;2.88;;
64543;SDS011;50936;51.660;5.616;2024-03-23T07:16:54;7.80;;;2.08;;
64543;SDS011;50936;51.660;5.616;2024-03-23T07:19:41;14.45;;;3.83;;
64543;SDS011;50936;51.660;5.616;2024-03-23T07:22:27;9.13;;;2.35;;
64543;SDS011;50936;51.660;5.616;2024-03-23T07:25:13;10.63;;;2.85;;
64543;SDS011;50936;51.660;5.616;2024-03-23T07:28:01;7.00;;;2.70;;
64543;SDS011;50936;51.660;5.616;2024-03-23T07:30:47;7.20;;;2.42;;
64543;SDS011;50936;51.660;5.616;2024-03-23T07:33:35;11.52;;;2.88;;
64543;SDS011;50936;51.660;5.616;2024-03-23T07:36:23;12.95;;;2.75;;
64543;SDS011;50936;51.660;5.616;2024-03-23T07:39:09;6.80;;;1.90;;
64543;SDS011;50936;51.660;5.616;2024-03-23T07:41:55;14.18;;;2.20;;
64543;SDS011;50936;51.660;5.616;2024-03-23T07:44:42;7.07;;;1.50;;
64543;SDS011;50936;51.660;5.616;2024-03-23T07:47:28;8.57;;;2.25;;
64543;SDS011;50936;51.660;5.616;2024-03-23T07:50:14;7.93;;;2.25;;
64543;SDS011;50936;51.660;5.616;2024-03-23T07:53:01;10.07;;;2.58;;
64543;SDS011;50936;51.660;5.616;2024-03-23T07:55:57;7.15;;;2.97;;
64543;SDS011;50936;51.660;5.616;2024-03-23T07:58:45;9.63;;;2.50;;
64543;SDS011;50936;51.660;5.616;2024-03-23T08:01:31;7.85;;;2.15;;
64543;SDS011;50936;51.660;5.616;2024-03-23T08:04:18;12.18;;;2.40;;
64543;SDS011;50936;51.660;5.616;2024-03-23T08:07:04;11.40;;;3.00;;
64543;SDS011;50936;51.660;5.616;2024-03-23T08:09:51;9.38;;;2.45;;
64543;SDS011;50936;51.660;5.616;2024-03-23T08:12:37;6.13;;;2.33;;
64543;SDS011;50936;51.660;5.616;2024-03-23T08:15:23;8.82;;;2.17;;
64543;SDS011;50936;51.660;5.616;2024-03-23T08:18:10;6.60;;;2.08;;
64543;SDS011;50936;51.660;5.616;2024-03-23T08:23:49;9.60;;;2.25;;
64543;SDS011;50936;51.660;5.616;2024-03-23T08:26:35;7.88;;;1.70;;
64543;SDS011;50936;51.660;5.616;2024-03-23T08:29:23;7.68;;;1.98;;
64543;SDS011;50936;51.660;5.616;2024-03-23T08:32:09;10.80;;;2.30;;
64543;SDS011;50936;51.660;5.616;2024-03-23T08:34:56;13.00;;;2.53;;
64543;SDS011;50936;51.660;5.616;2024-03-23T08:37:42;9.05;;;2.53;;
64543;SDS011;50936;51.660;5.616;2024-03-23T08:40:28;5.07;;;1.73;;
64543;SDS011;50936;51.660;5.616;2024-03-23T08:43:14;10.65;;;2.28;;
64543;SDS011;50936;51.660;5.616;2024-03-23T08:46:04;6.80;;;2.10;;
64543;SDS011;50936;51.660;5.616;2024-03-23T08:48:59;6.22;;;2.63;;
64543;SDS011;50936;51.660;5.616;2024-03-23T08:51:45;5.13;;;1.38;;
64543;SDS011;50936;51.660;5.616;2024-03-23T08:54:31;7.63;;;1.02;;
64543;SDS011;50936;51.660;5.616;2024-03-23T08:57:17;3.75;;;0.98;;
64543;SDS011;50936;51.660;5.616;2024-03-23T09:00:03;4.53;;;1.23;;
64543;SDS011;50936;51.660;5.616;2024-03-23T09:02:51;5.65;;;1.20;;
64543;SDS011;50936;51.660;5.616;2024-03-23T09:05:39;6.85;;;1.30;;
64543;SDS011;50936;51.660;5.616;2024-03-23T09:08:25;4.97;;;1.38;;
64543;SDS011;50936;51.660;5.616;2024-03-23T09:11:12;7.20;;;1.58;;
64543;SDS011;50936;51.660;5.616;2024-03-23T09:13:59;4.47;;;1.45;;
64543;SDS011;50936;51.660;5.616;2024-03-23T09:16:45;6.07;;;1.73;;
64543;SDS011;50936;51.660;5.616;2024-03-23T09:19:32;13.77;;;2.28;;
64543;SDS011;50936;51.660;5.616;2024-03-23T09:22:18;5.97;;;1.50;;
64543;SDS011;50936;51.660;5.616;2024-03-23T09:25:04;7.03;;;1.75;;
64543;SDS011;50936;51.660;5.616;2024-03-23T09:27:51;7.65;;;1.88;;
64543;SDS011;50936;51.660;5.616;2024-03-23T09:30:37;8.75;;;2.20;;
64543;SDS011;50936;51.660;5.616;2024-03-23T09:33:29;5.88;;;1.35;;
64543;SDS011;50936;51.660;5.616;2024-03-23T09:36:16;8.15;;;2.00;;
64543;SDS011;50936;51.660;5.616;2024-03-23T09:39:02;5.50;;;1.80;;
64543;SDS011;50936;51.660;5.616;2024-03-23T09:41:49;7.10;;;1.80;;
64543;SDS011;50936;51.660;5.616;2024-03-23T09:44:36;3.83;;;1.38;;
64543;SDS011;50936;51.660;5.616;2024-03-23T09:47:22;10.82;;;1.80;;
64543;SDS011;50936;51.660;5.616;2024-03-23T09:50:10;4.82;;;1.38;;
64543;SDS011;50936;51.660;5.616;2024-03-23T09:52:57;10.50;;;1.77;;
64543;SDS011;50936;51.660;5.616;2024-03-23T09:55:43;5.53;;;1.65;;
64543;SDS011;50936;51.660;5.616;2024-03-23T09:58:30;9.35;;;1.63;;
64543;SDS011;50936;51.660;5.616;2024-03-23T10:01:17;2.40;;;0.95;;
64543;SDS011;50936;51.660;5.616;2024-03-23T10:04:05;5.53;;;1.50;;
64543;SDS011;50936;51.660;5.616;2024-03-23T10:06:51;5.43;;;1.48;;
64543;SDS011;50936;51.660;5.616;2024-03-23T10:09:37;4.85;;;1.60;;
64543;SDS011;50936;51.660;5.616;2024-03-23T10:12:23;7.60;;;1.65;;
64543;SDS011;50936;51.660;5.616;2024-03-23T10:18:20;6.13;;;1.50;;
64543;SDS011;50936;51.660;5.616;2024-03-23T10:21:09;5.97;;;1.30;;
64543;SDS011;50936;51.660;5.616;2024-03-23T10:23:56;5.63;;;1.60;;
64543;SDS011;50936;51.660;5.616;2024-03-23T10:26:57;3.80;;;1.40;;
64543;SDS011;50936;51.660;5.616;2024-03-23T10:29:47;5.32;;;1.52;;
64543;SDS011;50936;51.660;5.616;2024-03-23T10:32:35;7.18;;;1.58;;
64543;SDS011;50936;51.660;5.616;2024-03-23T10:35:21;3.63;;;1.30;;
64543;SDS011;50936;51.660;5.616;2024-03-23T10:38:09;3.47;;;0.98;;
64543;SDS011;50936;51.660;5.616;2024-03-23T10:40:55;7.30;;;1.55;;
64543;SDS011;50936;51.660;5.616;2024-03-23T10:43:43;4.63;;;1.48;;
64543;SDS011;50936;51.660;5.616;2024-03-23T10:46:33;5.82;;;1.30;;
64543;SDS011;50936;51.660;5.616;2024-03-23T10:49:20;5.03;;;1.40;;
64543;SDS011;50936;51.660;5.616;2024-03-23T10:52:06;4.72;;;1.40;;
64543;SDS011;50936;51.660;5.616;2024-03-23T10:54:53;9.50;;;1.40;;
64543;SDS011;50936;51.660;5.616;2024-03-23T10:57:44;7.88;;;1.50;;
64543;SDS011;50936;51.660;5.616;2024-03-23T11:00:41;4.95;;;1.00;;
64543;SDS011;50936;51.660;5.616;2024-03-23T11:03:34;7.57;;;1.42;;
64543;SDS011;50936;51.660;5.616;2024-03-23T11:06:35;4.43;;;1.45;;
64543;SDS011;50936;51.660;5.616;2024-03-23T11:12:30;3.70;;;0.90;;
64543;SDS011;50936;51.660;5.616;2024-03-23T11:15:18;5.50;;;1.20;;
64543;SDS011;50936;51.660;5.616;2024-03-23T11:18:05;3.92;;;1.25;;
64543;SDS011;50936;51.660;5.616;2024-03-23T11:20:57;3.75;;;1.10;;
64543;SDS011;50936;51.660;5.616;2024-03-23T11:23:44;5.68;;;1.50;;
64543;SDS011;50936;51.660;5.616;2024-03-23T11:26:30;3.15;;;0.88;;
64543;SDS011;50936;51.660;5.616;2024-03-23T11:29:17;4.95;;;1.30;;
64543;SDS011;50936;51.660;5.616;2024-03-23T11:32:04;4.22;;;1.30;;
64543;SDS011;50936;51.660;5.616;2024-03-23T11:34:50;2.08;;;1.48;;
64543;SDS011;50936;51.660;5.616;2024-03-23T11:37:37;4.63;;;1.10;;
64543;SDS011;50936;51.660;5.616;2024-03-23T11:40:23;3.33;;;1.30;;
64543;SDS011;50936;51.660;5.616;2024-03-23T11:43:11;7.25;;;1.48;;
64543;SDS011;50936;51.660;5.616;2024-03-23T11:46:02;3.67;;;0.88;;
64543;SDS011;50936;51.660;5.616;2024-03-23T11:48:49;4.35;;;1.58;;
64543;SDS011;50936;51.660;5.616;2024-03-23T11:51:39;2.67;;;0.85;;
64543;SDS011;50936;51.660;5.616;2024-03-23T11:54:26;10.10;;;2.28;;
64543;SDS011;50936;51.660;5.616;2024-03-23T11:57:12;4.57;;;0.95;;
64543;SDS011;50936;51.660;5.616;2024-03-23T11:59:59;4.68;;;1.30;;
64543;SDS011;50936;51.660;5.616;2024-03-23T12:02:45;1.98;;;0.70;;
64543;SDS011;50936;51.660;5.616;2024-03-23T12:05:31;4.90;;;1.10;;
64543;SDS011;50936;51.660;5.616;2024-03-23T12:11:19;7.47;;;1.40;;
64543;SDS011;50936;51.660;5.616;2024-03-23T12:14:05;5.22;;;1.30;;
64543;SDS011;50936;51.660;5.616;2024-03-23T12:16:51;6.28;;;1.35;;
64543;SDS011;50936;51.660;5.616;2024-03-23T12:19:39;4.53;;;1.35;;
64543;SDS011;50936;51.660;5.616;2024-03-23T12:22:27;6.13;;;1.70;;
64543;SDS011;50936;51.660;5.616;2024-03-23T12:25:15;9.35;;;1.63;;
64543;SDS011;50936;51.660;5.616;2024-03-23T12:28:01;5.53;;;1.60;;
64543;SDS011;50936;51.660;5.616;2024-03-23T12:30:48;5.47;;;0.95;;
64543;SDS011;50936;51.660;5.616;2024-03-23T12:33:34;6.90;;;2.15;;
64543;SDS011;50936;51.660;5.616;2024-03-23T12:36:21;3.15;;;0.90;;
64543;SDS011;50936;51.660;5.616;2024-03-23T12:39:07;6.97;;;1.13;;
64543;SDS011;50936;51.660;5.616;2024-03-23T12:41:53;6.00;;;1.38;;
64543;SDS011;50936;51.660;5.616;2024-03-23T12:44:40;1.75;;;0.80;;
64543;SDS011;50936;51.660;5.616;2024-03-23T12:47:27;4.53;;;1.30;;
64543;SDS011;50936;51.660;5.616;2024-03-23T12:50:13;4.25;;;1.15;;
64543;SDS011;50936;51.660;5.616;2024-03-23T12:53:00;3.08;;;0.90;;
64543;SDS011;50936;51.660;5.616;2024-03-23T12:55:46;4.72;;;1.38;;
64543;SDS011;50936;51.660;5.616;2024-03-23T12:58:32;7.78;;;1.33;;
64543;SDS011;50936;51.660;5.616;2024-03-23T13:01:18;6.78;;;1.23;;
64543;SDS011;50936;51.660;5.616;2024-03-23T13:04:05;5.93;;;1.48;;
64543;SDS011;50936;51.660;5.616;2024-03-23T13:06:52;8.52;;;1.23;;
64543;SDS011;50936;51.660;5.616;2024-03-23T13:09:38;5.05;;;1.33;;
64543;SDS011;50936;51.660;5.616;2024-03-23T13:12:24;4.05;;;1.40;;
64543;SDS011;50936;51.660;5.616;2024-03-23T13:15:11;3.75;;;1.02;;
64543;SDS011;50936;51.660;5.616;2024-03-23T13:17:57;6.82;;;1.95;;
64543;SDS011;50936;51.660;5.616;2024-03-23T13:20:44;3.60;;;1.00;;
64543;SDS011;50936;51.660;5.616;2024-03-23T13:23:30;3.35;;;1.15;;
64543;SDS011;50936;51.660;5.616;2024-03-23T13:26:18;7.25;;;1.35;;
64543;SDS011;50936;51.660;5.616;2024-03-23T13:29:04;5.80;;;1.55;;
64543;SDS011;50936;51.660;5.616;2024-03-23T13:31:51;5.20;;;1.75;;
64543;SDS011;50936;51.660;5.616;2024-03-23T13:34:39;2.97;;;1.20;;
64543;SDS011;50936;51.660;5.616;2024-03-23T13:37:26;3.83;;;1.35;;
64543;SDS011;50936;51.660;5.616;2024-03-23T13:40:12;4.28;;;1.20;;
64543;SDS011;50936;51.660;5.616;2024-03-23T13:42:58;5.13;;;1.35;;
64543;SDS011;50936;51.660;5.616;2024-03-23T13:45:46;5.30;;;1.05;;
64543;SDS011;50936;51.660;5.616;2024-03-23T13:48:34;5.70;;;1.30;;
64543;SDS011;50936;51.660;5.616;2024-03-23T13:51:23;11.68;;;1.58;;
64543;SDS011;50936;51.660;5.616;2024-03-23T13:54:12;4.10;;;1.00;;
64543;SDS011;50936;51.660;5.616;2024-03-23T13:56:59;5.20;;;1.05;;
64543;SDS011;50936;51.660;5.616;2024-03-23T13:59:45;4.70;;;1.42;;
64543;SDS011;50936;51.660;5.616;2024-03-23T14:02:31;3.58;;;1.27;;
64543;SDS011;50936;51.660;5.616;2024-03-23T14:05:17;6.82;;;1.45;;
64543;SDS011;50936;51.660;5.616;2024-03-23T14:08:10;3.47;;;1.20;;
64543;SDS011;50936;51.660;5.616;2024-03-23T14:10:57;3.30;;;1.00;;
64543;SDS011;50936;51.660;5.616;2024-03-23T14:13:44;5.88;;;1.10;;
64543;SDS011;50936;51.660;5.616;2024-03-23T14:16:30;5.07;;;1.30;;
64543;SDS011;50936;51.660;5.616;2024-03-23T14:19:17;5.85;;;1.42;;
64543;SDS011;50936;51.660;5.616;2024-03-23T14:22:05;8.40;;;1.83;;
64543;SDS011;50936;51.660;5.616;2024-03-23T14:24:51;6.45;;;1.80;;
64543;SDS011;50936;51.660;5.616;2024-03-23T14:27:37;6.88;;;1.58;;
64543;SDS011;50936;51.660;5.616;2024-03-23T14:30:23;4.97;;;1.35;;
64543;SDS011;50936;51.660;5.616;2024-03-23T14:33:10;3.10;;;1.23;;
64543;SDS011;50936;51.660;5.616;2024-03-23T14:35:56;8.98;;;1.88;;
64543;SDS011;50936;51.660;5.616;2024-03-23T14:38:47;4.20;;;1.55;;
64543;SDS011;50936;51.660;5.616;2024-03-23T14:44:20;7.03;;;1.83;;
64543;SDS011;50936;51.660;5.616;2024-03-23T14:47:06;6.07;;;1.45;;
64543;SDS011;50936;51.660;5.616;2024-03-23T14:49:52;6.97;;;1.50;;
64543;SDS011;50936;51.660;5.616;2024-03-23T14:52:39;5.95;;;1.45;;
64543;SDS011;50936;51.660;5.616;2024-03-23T14:55:25;6.20;;;1.58;;
64543;SDS011;50936;51.660;5.616;2024-03-23T14:58:11;9.07;;;1.80;;
64543;SDS011;50936;51.660;5.616;2024-03-23T15:03:51;5.63;;;1.63;;
64543;SDS011;50936;51.660;5.616;2024-03-23T15:06:39;7.15;;;1.73;;
64543;SDS011;50936;51.660;5.616;2024-03-23T15:09:25;4.55;;;1.25;;
64543;SDS011;50936;51.660;5.616;2024-03-23T15:12:11;6.18;;;1.20;;
64543;SDS011;50936;51.660;5.616;2024-03-23T15:14:57;6.13;;;1.42;;
64543;SDS011;50936;51.660;5.616;2024-03-23T15:17:44;1.80;;;0.80;;
64543;SDS011;50936;51.660;5.616;2024-03-23T15:20:31;1.77;;;0.70;;
64543;SDS011;50936;51.660;5.616;2024-03-23T15:23:21;1.67;;;0.68;;
64543;SDS011;50936;51.660;5.616;2024-03-23T15:26:08;6.25;;;1.00;;
64543;SDS011;50936;51.660;5.616;2024-03-23T15:28:54;2.20;;;0.65;;
64543;SDS011;50936;51.660;5.616;2024-03-23T15:31:43;5.75;;;0.98;;
64543;SDS011;50936;51.660;5.616;2024-03-23T15:34:31;2.50;;;0.70;;
64543;SDS011;50936;51.660;5.616;2024-03-23T15:37:17;2.85;;;1.02;;
64543;SDS011;50936;51.660;5.616;2024-03-23T15:40:04;3.85;;;1.65;;
64543;SDS011;50936;51.660;5.616;2024-03-23T15:42:51;5.55;;;1.05;;
64543;SDS011;50936;51.660;5.616;2024-03-23T15:45:38;2.40;;;0.75;;
64543;SDS011;50936;51.660;5.616;2024-03-23T15:48:24;1.52;;;0.68;;
64543;SDS011;50936;51.660;5.616;2024-03-23T15:51:12;2.50;;;0.80;;
64543;SDS011;50936;51.660;5.616;2024-03-23T15:53:59;4.13;;;0.90;;
64543;SDS011;50936;51.660;5.616;2024-03-23T15:56:46;1.15;;;0.60;;
64543;SDS011;50936;51.660;5.616;2024-03-23T15:59:32;2.88;;;0.60;;
64543;SDS011;50936;51.660;5.616;2024-03-23T16:02:19;3.50;;;0.80;;
64543;SDS011;50936;51.660;5.616;2024-03-23T16:05:05;2.60;;;0.73;;
64543;SDS011;50936;51.660;5.616;2024-03-23T16:07:54;1.15;;;0.50;;
64543;SDS011;50936;51.660;5.616;2024-03-23T16:10:40;3.97;;;0.98;;
64543;SDS011;50936;51.660;5.616;2024-03-23T16:13:26;3.13;;;0.82;;
64543;SDS011;50936;51.660;5.616;2024-03-23T16:16:15;2.92;;;0.70;;
64543;SDS011;50936;51.660;5.616;2024-03-23T16:19:02;1.63;;;0.73;;
64543;SDS011;50936;51.660;5.616;2024-03-23T16:21:48;1.33;;;0.75;;
64543;SDS011;50936;51.660;5.616;2024-03-23T16:24:34;2.28;;;0.80;;
64543;SDS011;50936;51.660;5.616;2024-03-23T16:27:20;5.05;;;1.17;;
64543;SDS011;50936;51.660;5.616;2024-03-23T16:30:07;1.63;;;1.00;;
64543;SDS011;50936;51.660;5.616;2024-03-23T16:32:53;3.10;;;0.82;;
64543;SDS011;50936;51.660;5.616;2024-03-23T16:35:40;6.22;;;1.42;;
64543;SDS011;50936;51.660;5.616;2024-03-23T16:38:26;3.25;;;0.98;;
64543;SDS011;50936;51.660;5.616;2024-03-23T16:41:14;3.20;;;1.10;;
64543;SDS011;50936;51.660;5.616;2024-03-23T16:44:03;0.85;;;0.52;;
64543;SDS011;50936;51.660;5.616;2024-03-23T16:46:49;1.88;;;0.80;;
64543;SDS011;50936;51.660;5.616;2024-03-23T16:49:35;1.52;;;0.80;;
64543;SDS011;50936;51.660;5.616;2024-03-23T16:52:22;1.30;;;0.80;;
64543;SDS011;50936;51.660;5.616;2024-03-23T16:55:08;3.40;;;1.20;;
64543;SDS011;50936;51.660;5.616;2024-03-23T16:57:55;3.40;;;1.60;;
64543;SDS011;50936;51.660;5.616;2024-03-23T17:00:41;4.70;;;1.13;;
64543;SDS011;50936;51.660;5.616;2024-03-23T17:03:28;1.35;;;1.10;;
64543;SDS011;50936;51.660;5.616;2024-03-23T17:06:14;2.85;;;0.73;;
64543;SDS011;50936;51.660;5.616;2024-03-23T17:09:02;2.42;;;1.20;;
64543;SDS011;50936;51.660;5.616;2024-03-23T17:11:48;3.33;;;0.80;;
64543;SDS011;50936;51.660;5.616;2024-03-23T17:14:35;3.50;;;1.52;;
64543;SDS011;50936;51.660;5.616;2024-03-23T17:17:22;4.05;;;1.45;;
64543;SDS011;50936;51.660;5.616;2024-03-23T17:20:08;5.75;;;1.70;;
64543;SDS011;50936;51.660;5.616;2024-03-23T17:22:56;2.72;;;1.38;;
64543;SDS011;50936;51.660;5.616;2024-03-23T17:25:42;4.82;;;1.30;;
64543;SDS011;50936;51.660;5.616;2024-03-23T17:28:28;4.57;;;1.40;;
64543;SDS011;50936;51.660;5.616;2024-03-23T17:31:21;5.15;;;1.45;;
64543;SDS011;50936;51.660;5.616;2024-03-23T17:34:07;4.05;;;1.58;;
64543;SDS011;50936;51.660;5.616;2024-03-23T17:36:53;2.80;;;1.30;;
64543;SDS011;50936;51.660;5.616;2024-03-23T17:39:39;4.20;;;1.45;;
64543;SDS011;50936;51.660;5.616;2024-03-23T17:42:26;4.25;;;1.02;;
64543;SDS011;50936;51.660;5.616;2024-03-23T17:45:12;3.92;;;1.67;;
64543;SDS011;50936;51.660;5.616;2024-03-23T17:47:59;3.38;;;1.50;;
64543;SDS011;50936;51.660;5.616;2024-03-23T17:50:46;4.35;;;1.50;;
64543;SDS011;50936;51.660;5.616;2024-03-23T17:53:38;3.95;;;1.65;;